sensor_id;sensor_type;location;lat;lon;timestamp;P1;durP1;ratioP1;P2;durP2;ratioP2
5999;SDS011;3028;49.468;7.694;2023-07-29T00:00:58;1.08;;;1.00;;
5999;SDS011;3028;49.468;7.694;2023-07-29T00:03:01;0.93;;;0.90;;
5999;SDS011;3028;49.468;7.694;2023-07-29T00:05:03;1.65;;;0.85;;
5999;SDS011;3028;49.468;7.694;2023-07-29T00:07:05;2.83;;;0.90;;
5999;SDS011;3028;49.468;7.694;2023-07-29T00:09:07;1.45;;;1.23;;
5999;SDS011;3028;49.468;7.694;2023-07-29T00:11:09;2.03;;;1.30;;
5999;SDS011;3028;49.468;7.694;2023-07-29T00:13:10;1.50;;;1.15;;
5999;SDS011;3028;49.468;7.694;2023-07-29T00:15:14;2.63;;;0.88;;
5999;SDS011;3028;49.468;7.694;2023-07-29T00:17:15;1.60;;;1.10;;
5999;SDS011;3028;49.468;7.694;2023-07-29T00:19:17;1.20;;;1.10;;
5999;SDS011;3028;49.468;7.694;2023-07-29T00:21:19;2.08;;;1.40;;
5999;SDS011;3028;49.468;7.694;2023-07-29T00:23:21;1.55;;;1.00;;
5999;SDS011;3028;49.468;7.694;2023-07-29T00:25:22;1.77;;;1.00;;
5999;SDS011;3028;49.468;7.694;2023-07-29T00:27:24;7.03;;;1.55;;
5999;SDS011;3028;49.468;7.694;2023-07-29T00:29:26;1.08;;;1.00;;
5999;SDS011;3028;49.468;7.694;2023-07-29T00:31:28;5.63;;;1.00;;
5999;SDS011;3028;49.468;7.694;2023-07-29T00:33:30;1.92;;;1.13;;
5999;SDS011;3028;49.468;7.694;2023-07-29T00:35:32;1.38;;;1.05;;
5999;SDS011;3028;49.468;7.694;2023-07-29T00:37:34;0.88;;;0.73;;
5999;SDS011;3028;49.468;7.694;2023-07-29T00:39:36;2.33;;;1.17;;
5999;SDS011;3028;49.468;7.694;2023-07-29T00:41:40;1.75;;;0.80;;
5999;SDS011;3028;49.468;7.694;2023-07-29T00:43:42;1.60;;;0.90;;
5999;SDS011;3028;49.468;7.694;2023-07-29T00:45:44;1.88;;;1.00;;
5999;SDS011;3028;49.468;7.694;2023-07-29T00:47:46;1.35;;;1.10;;
5999;SDS011;3028;49.468;7.694;2023-07-29T00:49:48;1.15;;;1.13;;
5999;SDS011;3028;49.468;7.694;2023-07-29T00:51:52;1.23;;;1.13;;
5999;SDS011;3028;49.468;7.694;2023-07-29T00:53:53;1.60;;;1.15;;
5999;SDS011;3028;49.468;7.694;2023-07-29T00:55:55;1.85;;;0.85;;
5999;SDS011;3028;49.468;7.694;2023-07-29T00:57:57;1.23;;;1.13;;
5999;SDS011;3028;49.468;7.694;2023-07-29T01:00:00;2.90;;;1.00;;
5999;SDS011;3028;49.468;7.694;2023-07-29T01:02:02;3.30;;;1.98;;
5999;SDS011;3028;49.468;7.694;2023-07-29T01:04:04;1.50;;;1.40;;
5999;SDS011;3028;49.468;7.694;2023-07-29T01:08:27;1.30;;;1.20;;
5999;SDS011;3028;49.468;7.694;2023-07-29T01:15:32;1.23;;;1.00;;
5999;SDS011;3028;49.468;7.694;2023-07-29T01:17:42;1.33;;;1.23;;
5999;SDS011;3028;49.468;7.694;2023-07-29T01:22:02;3.13;;;1.33;;
5999;SDS011;3028;49.468;7.694;2023-07-29T01:24:04;1.30;;;1.20;;
5999;SDS011;3028;49.468;7.694;2023-07-29T01:26:06;1.30;;;1.00;;
5999;SDS011;3028;49.468;7.694;2023-07-29T01:28:08;1.30;;;1.20;;
5999;SDS011;3028;49.468;7.694;2023-07-29T01:30:12;3.08;;;1.40;;
5999;SDS011;3028;49.468;7.694;2023-07-29T01:32:34;0.80;;;0.80;;
5999;SDS011;3028;49.468;7.694;2023-07-29T01:35:01;1.50;;;0.98;;
5999;SDS011;3028;49.468;7.694;2023-07-29T01:37:05;1.98;;;0.98;;
5999;SDS011;3028;49.468;7.694;2023-07-29T01:39:09;2.30;;;0.98;;
5999;SDS011;3028;49.468;7.694;2023-07-29T01:41:12;4.63;;;1.15;;
5999;SDS011;3028;49.468;7.694;2023-07-29T01:43:15;1.40;;;1.13;;
5999;SDS011;3028;49.468;7.694;2023-07-29T01:45:17;2.13;;;1.00;;
5999;SDS011;3028;49.468;7.694;2023-07-29T01:47:20;1.23;;;0.95;;
5999;SDS011;3028;49.468;7.694;2023-07-29T01:49:23;1.00;;;1.00;;
5999;SDS011;3028;49.468;7.694;2023-07-29T01:51:25;0.95;;;0.93;;
5999;SDS011;3028;49.468;7.694;2023-07-29T01:53:27;2.35;;;0.90;;
5999;SDS011;3028;49.468;7.694;2023-07-29T01:55:28;0.95;;;0.95;;
5999;SDS011;3028;49.468;7.694;2023-07-29T01:57:30;0.82;;;0.82;;
5999;SDS011;3028;49.468;7.694;2023-07-29T01:59:32;0.80;;;0.80;;
5999;SDS011;3028;49.468;7.694;2023-07-29T02:01:34;0.93;;;0.82;;
5999;SDS011;3028;49.468;7.694;2023-07-29T02:03:36;2.53;;;0.80;;
5999;SDS011;3028;49.468;7.694;2023-07-29T02:05:37;1.60;;;0.93;;
5999;SDS011;3028;49.468;7.694;2023-07-29T02:07:39;0.98;;;0.98;;
5999;SDS011;3028;49.468;7.694;2023-07-29T02:09:41;1.55;;;0.80;;
5999;SDS011;3028;49.468;7.694;2023-07-29T02:11:43;1.45;;;0.80;;
5999;SDS011;3028;49.468;7.694;2023-07-29T02:13:44;0.93;;;0.93;;
5999;SDS011;3028;49.468;7.694;2023-07-29T02:15:46;1.48;;;1.38;;
5999;SDS011;3028;49.468;7.694;2023-07-29T02:17:49;1.02;;;0.70;;
5999;SDS011;3028;49.468;7.694;2023-07-29T02:19:52;0.95;;;0.90;;
5999;SDS011;3028;49.468;7.694;2023-07-29T02:21:53;1.00;;;0.90;;
5999;SDS011;3028;49.468;7.694;2023-07-29T02:23:55;0.70;;;0.70;;
5999;SDS011;3028;49.468;7.694;2023-07-29T02:25:57;2.08;;;0.80;;
5999;SDS011;3028;49.468;7.694;2023-07-29T02:27:59;2.33;;;0.80;;
5999;SDS011;3028;49.468;7.694;2023-07-29T02:30:00;1.48;;;0.98;;
5999;SDS011;3028;49.468;7.694;2023-07-29T02:32:02;1.52;;;0.93;;
5999;SDS011;3028;49.468;7.694;2023-07-29T02:34:04;0.80;;;0.80;;
5999;SDS011;3028;49.468;7.694;2023-07-29T02:36:09;1.65;;;0.80;;
5999;SDS011;3028;49.468;7.694;2023-07-29T02:38:11;1.10;;;0.90;;
5999;SDS011;3028;49.468;7.694;2023-07-29T02:40:16;1.00;;;0.98;;
5999;SDS011;3028;49.468;7.694;2023-07-29T02:42:18;1.60;;;0.93;;
5999;SDS011;3028;49.468;7.694;2023-07-29T02:44:19;1.42;;;0.90;;
5999;SDS011;3028;49.468;7.694;2023-07-29T02:46:21;2.13;;;0.80;;
5999;SDS011;3028;49.468;7.694;2023-07-29T02:48:24;1.40;;;0.90;;
5999;SDS011;3028;49.468;7.694;2023-07-29T02:50:26;1.58;;;0.80;;
5999;SDS011;3028;49.468;7.694;2023-07-29T02:52:27;2.13;;;0.77;;
5999;SDS011;3028;49.468;7.694;2023-07-29T02:54:29;0.70;;;0.70;;
5999;SDS011;3028;49.468;7.694;2023-07-29T02:56:31;1.25;;;1.00;;
5999;SDS011;3028;49.468;7.694;2023-07-29T02:58:33;1.35;;;1.25;;
5999;SDS011;3028;49.468;7.694;2023-07-29T03:00:34;1.58;;;1.00;;
5999;SDS011;3028;49.468;7.694;2023-07-29T03:02:37;4.43;;;0.85;;
5999;SDS011;3028;49.468;7.694;2023-07-29T03:04:38;2.10;;;0.90;;
5999;SDS011;3028;49.468;7.694;2023-07-29T03:06:40;1.00;;;0.90;;
5999;SDS011;3028;49.468;7.694;2023-07-29T03:08:42;1.15;;;1.05;;
5999;SDS011;3028;49.468;7.694;2023-07-29T03:10:44;1.38;;;0.80;;
5999;SDS011;3028;49.468;7.694;2023-07-29T03:12:46;2.55;;;1.05;;
5999;SDS011;3028;49.468;7.694;2023-07-29T03:14:47;3.28;;;1.00;;
5999;SDS011;3028;49.468;7.694;2023-07-29T03:16:50;3.28;;;1.08;;
5999;SDS011;3028;49.468;7.694;2023-07-29T03:18:52;2.53;;;0.98;;
5999;SDS011;3028;49.468;7.694;2023-07-29T03:20:55;1.08;;;0.90;;
5999;SDS011;3028;49.468;7.694;2023-07-29T03:22:57;3.47;;;1.10;;
5999;SDS011;3028;49.468;7.694;2023-07-29T03:24:59;7.03;;;1.27;;
5999;SDS011;3028;49.468;7.694;2023-07-29T03:27:00;3.92;;;1.00;;
5999;SDS011;3028;49.468;7.694;2023-07-29T03:29:02;0.95;;;0.95;;
5999;SDS011;3028;49.468;7.694;2023-07-29T03:31:04;1.95;;;0.85;;
5999;SDS011;3028;49.468;7.694;2023-07-29T03:33:06;5.03;;;1.05;;
5999;SDS011;3028;49.468;7.694;2023-07-29T03:35:07;3.90;;;1.10;;
5999;SDS011;3028;49.468;7.694;2023-07-29T03:37:09;0.77;;;0.77;;
5999;SDS011;3028;49.468;7.694;2023-07-29T03:39:11;0.90;;;0.90;;
5999;SDS011;3028;49.468;7.694;2023-07-29T03:41:13;1.73;;;0.80;;
5999;SDS011;3028;49.468;7.694;2023-07-29T03:43:15;1.10;;;1.00;;
5999;SDS011;3028;49.468;7.694;2023-07-29T03:45:16;0.90;;;0.90;;
5999;SDS011;3028;49.468;7.694;2023-07-29T03:47:18;1.73;;;1.00;;
5999;SDS011;3028;49.468;7.694;2023-07-29T03:49:20;0.85;;;0.77;;
5999;SDS011;3028;49.468;7.694;2023-07-29T03:51:22;1.50;;;0.90;;
5999;SDS011;3028;49.468;7.694;2023-07-29T03:53:25;2.15;;;1.17;;
5999;SDS011;3028;49.468;7.694;2023-07-29T03:55:26;1.05;;;0.90;;
5999;SDS011;3028;49.468;7.694;2023-07-29T03:57:28;1.10;;;1.05;;
5999;SDS011;3028;49.468;7.694;2023-07-29T03:59:31;1.10;;;0.80;;
5999;SDS011;3028;49.468;7.694;2023-07-29T04:01:32;1.40;;;0.95;;
5999;SDS011;3028;49.468;7.694;2023-07-29T04:03:34;7.90;;;1.30;;
5999;SDS011;3028;49.468;7.694;2023-07-29T04:05:36;2.58;;;0.90;;
5999;SDS011;3028;49.468;7.694;2023-07-29T04:07:38;1.85;;;1.17;;
5999;SDS011;3028;49.468;7.694;2023-07-29T04:09:40;1.55;;;0.80;;
5999;SDS011;3028;49.468;7.694;2023-07-29T04:11:47;1.45;;;0.90;;
5999;SDS011;3028;49.468;7.694;2023-07-29T04:13:50;1.17;;;0.80;;
5999;SDS011;3028;49.468;7.694;2023-07-29T04:15:51;0.82;;;0.80;;
5999;SDS011;3028;49.468;7.694;2023-07-29T04:17:53;5.30;;;0.90;;
5999;SDS011;3028;49.468;7.694;2023-07-29T04:19:55;1.88;;;1.23;;
5999;SDS011;3028;49.468;7.694;2023-07-29T04:21:57;2.42;;;1.58;;
5999;SDS011;3028;49.468;7.694;2023-07-29T04:23:58;0.77;;;0.77;;
5999;SDS011;3028;49.468;7.694;2023-07-29T04:26:00;2.83;;;1.20;;
5999;SDS011;3028;49.468;7.694;2023-07-29T04:28:02;1.55;;;0.90;;
5999;SDS011;3028;49.468;7.694;2023-07-29T04:30:06;2.20;;;1.23;;
5999;SDS011;3028;49.468;7.694;2023-07-29T04:32:08;3.03;;;1.40;;
5999;SDS011;3028;49.468;7.694;2023-07-29T04:34:10;3.08;;;1.40;;
5999;SDS011;3028;49.468;7.694;2023-07-29T04:36:12;1.65;;;0.93;;
5999;SDS011;3028;49.468;7.694;2023-07-29T04:38:13;1.10;;;1.00;;
5999;SDS011;3028;49.468;7.694;2023-07-29T04:40:15;1.52;;;1.15;;
5999;SDS011;3028;49.468;7.694;2023-07-29T04:42:17;1.88;;;1.00;;
5999;SDS011;3028;49.468;7.694;2023-07-29T04:44:19;1.17;;;1.08;;
5999;SDS011;3028;49.468;7.694;2023-07-29T04:46:20;1.55;;;1.00;;
5999;SDS011;3028;49.468;7.694;2023-07-29T04:48:22;1.10;;;1.10;;
5999;SDS011;3028;49.468;7.694;2023-07-29T04:50:24;3.20;;;1.10;;
5999;SDS011;3028;49.468;7.694;2023-07-29T04:52:26;1.33;;;1.17;;
5999;SDS011;3028;49.468;7.694;2023-07-29T04:54:27;1.98;;;1.40;;
5999;SDS011;3028;49.468;7.694;2023-07-29T04:56:29;1.85;;;1.48;;
5999;SDS011;3028;49.468;7.694;2023-07-29T04:58:31;3.15;;;1.55;;
5999;SDS011;3028;49.468;7.694;2023-07-29T05:00:36;4.03;;;1.40;;
5999;SDS011;3028;49.468;7.694;2023-07-29T05:02:37;2.92;;;1.10;;
5999;SDS011;3028;49.468;7.694;2023-07-29T05:04:39;1.45;;;1.35;;
5999;SDS011;3028;49.468;7.694;2023-07-29T05:06:41;4.32;;;1.35;;
5999;SDS011;3028;49.468;7.694;2023-07-29T05:08:43;1.88;;;1.48;;
5999;SDS011;3028;49.468;7.694;2023-07-29T05:10:48;2.47;;;1.42;;
5999;SDS011;3028;49.468;7.694;2023-07-29T05:12:50;1.95;;;1.60;;
5999;SDS011;3028;49.468;7.694;2023-07-29T05:14:52;1.80;;;1.40;;
5999;SDS011;3028;49.468;7.694;2023-07-29T05:16:53;1.88;;;1.58;;
5999;SDS011;3028;49.468;7.694;2023-07-29T05:18:55;1.55;;;1.33;;
5999;SDS011;3028;49.468;7.694;2023-07-29T05:20:57;1.75;;;1.65;;
5999;SDS011;3028;49.468;7.694;2023-07-29T05:22:59;2.00;;;1.70;;
5999;SDS011;3028;49.468;7.694;2023-07-29T05:25:01;1.90;;;1.70;;
5999;SDS011;3028;49.468;7.694;2023-07-29T05:27:03;2.75;;;2.13;;
5999;SDS011;3028;49.468;7.694;2023-07-29T05:29:05;4.65;;;1.63;;
5999;SDS011;3028;49.468;7.694;2023-07-29T05:31:08;1.70;;;1.60;;
5999;SDS011;3028;49.468;7.694;2023-07-29T05:33:09;1.98;;;1.88;;
5999;SDS011;3028;49.468;7.694;2023-07-29T05:35:11;3.08;;;1.73;;
5999;SDS011;3028;49.468;7.694;2023-07-29T05:37:13;1.60;;;1.50;;
5999;SDS011;3028;49.468;7.694;2023-07-29T05:39:15;1.73;;;1.60;;
5999;SDS011;3028;49.468;7.694;2023-07-29T05:41:17;2.78;;;2.13;;
5999;SDS011;3028;49.468;7.694;2023-07-29T05:43:18;3.17;;;2.70;;
5999;SDS011;3028;49.468;7.694;2023-07-29T05:45:20;2.42;;;2.22;;
5999;SDS011;3028;49.468;7.694;2023-07-29T05:47:22;2.85;;;2.65;;
5999;SDS011;3028;49.468;7.694;2023-07-29T05:49:24;3.03;;;2.80;;
5999;SDS011;3028;49.468;7.694;2023-07-29T05:51:25;3.00;;;2.33;;
5999;SDS011;3028;49.468;7.694;2023-07-29T05:53:27;4.85;;;2.40;;
5999;SDS011;3028;49.468;7.694;2023-07-29T05:55:29;3.28;;;2.17;;
5999;SDS011;3028;49.468;7.694;2023-07-29T05:57:31;2.42;;;2.22;;
5999;SDS011;3028;49.468;7.694;2023-07-29T05:59:32;2.45;;;2.25;;
5999;SDS011;3028;49.468;7.694;2023-07-29T06:01:34;3.10;;;1.85;;
5999;SDS011;3028;49.468;7.694;2023-07-29T06:03:36;3.10;;;1.88;;
5999;SDS011;3028;49.468;7.694;2023-07-29T06:05:38;1.80;;;1.70;;
5999;SDS011;3028;49.468;7.694;2023-07-29T06:07:40;1.80;;;1.70;;
5999;SDS011;3028;49.468;7.694;2023-07-29T06:09:45;2.03;;;1.92;;
5999;SDS011;3028;49.468;7.694;2023-07-29T06:11:47;3.17;;;2.00;;
5999;SDS011;3028;49.468;7.694;2023-07-29T06:13:49;2.65;;;1.70;;
5999;SDS011;3028;49.468;7.694;2023-07-29T06:15:51;4.35;;;1.50;;
5999;SDS011;3028;49.468;7.694;2023-07-29T06:17:53;2.65;;;1.35;;
5999;SDS011;3028;49.468;7.694;2023-07-29T06:19:57;2.05;;;1.45;;
5999;SDS011;3028;49.468;7.694;2023-07-29T06:21:59;1.92;;;1.77;;
5999;SDS011;3028;49.468;7.694;2023-07-29T06:24:02;1.33;;;1.25;;
5999;SDS011;3028;49.468;7.694;2023-07-29T06:26:07;3.05;;;1.60;;
5999;SDS011;3028;49.468;7.694;2023-07-29T06:28:09;2.55;;;1.42;;
5999;SDS011;3028;49.468;7.694;2023-07-29T06:30:11;1.75;;;1.30;;
5999;SDS011;3028;49.468;7.694;2023-07-29T06:32:13;8.52;;;1.80;;
5999;SDS011;3028;49.468;7.694;2023-07-29T06:34:14;2.03;;;1.40;;
5999;SDS011;3028;49.468;7.694;2023-07-29T06:36:16;6.13;;;1.60;;
5999;SDS011;3028;49.468;7.694;2023-07-29T06:38:18;2.45;;;1.35;;
5999;SDS011;3028;49.468;7.694;2023-07-29T06:40:23;1.85;;;1.70;;
5999;SDS011;3028;49.468;7.694;2023-07-29T06:42:24;2.10;;;1.77;;
5999;SDS011;3028;49.468;7.694;2023-07-29T06:44:26;2.28;;;2.03;;
5999;SDS011;3028;49.468;7.694;2023-07-29T06:46:28;1.92;;;1.70;;
5999;SDS011;3028;49.468;7.694;2023-07-29T06:48:30;1.98;;;1.85;;
5999;SDS011;3028;49.468;7.694;2023-07-29T06:50:31;1.98;;;1.60;;
5999;SDS011;3028;49.468;7.694;2023-07-29T06:52:33;2.03;;;1.80;;
5999;SDS011;3028;49.468;7.694;2023-07-29T06:54:35;6.97;;;1.60;;
5999;SDS011;3028;49.468;7.694;2023-07-29T06:56:37;12.27;;;2.60;;
5999;SDS011;3028;49.468;7.694;2023-07-29T06:58:39;6.00;;;1.90;;
5999;SDS011;3028;49.468;7.694;2023-07-29T07:00:40;4.32;;;1.33;;
5999;SDS011;3028;49.468;7.694;2023-07-29T07:02:42;4.43;;;1.25;;
5999;SDS011;3028;49.468;7.694;2023-07-29T07:04:45;1.48;;;1.02;;
5999;SDS011;3028;49.468;7.694;2023-07-29T07:06:46;3.53;;;0.85;;
5999;SDS011;3028;49.468;7.694;2023-07-29T07:08:48;3.85;;;1.05;;
5999;SDS011;3028;49.468;7.694;2023-07-29T07:10:51;4.22;;;2.30;;
5999;SDS011;3028;49.468;7.694;2023-07-29T07:12:52;2.45;;;0.90;;
5999;SDS011;3028;49.468;7.694;2023-07-29T07:14:54;1.67;;;1.10;;
5999;SDS011;3028;49.468;7.694;2023-07-29T07:16:56;1.92;;;0.95;;
5999;SDS011;3028;49.468;7.694;2023-07-29T07:18:58;1.40;;;0.80;;
5999;SDS011;3028;49.468;7.694;2023-07-29T07:21:00;2.45;;;0.70;;
5999;SDS011;3028;49.468;7.694;2023-07-29T07:23:01;2.92;;;0.93;;
5999;SDS011;3028;49.468;7.694;2023-07-29T07:25:04;1.40;;;0.60;;
5999;SDS011;3028;49.468;7.694;2023-07-29T07:27:09;1.40;;;0.80;;
5999;SDS011;3028;49.468;7.694;2023-07-29T07:29:10;0.63;;;0.63;;
5999;SDS011;3028;49.468;7.694;2023-07-29T07:31:12;1.77;;;0.75;;
5999;SDS011;3028;49.468;7.694;2023-07-29T07:33:17;3.42;;;0.90;;
5999;SDS011;3028;49.468;7.694;2023-07-29T07:35:19;0.82;;;0.65;;
5999;SDS011;3028;49.468;7.694;2023-07-29T07:37:21;6.00;;;0.90;;
5999;SDS011;3028;49.468;7.694;2023-07-29T07:39:23;1.52;;;0.75;;
5999;SDS011;3028;49.468;7.694;2023-07-29T07:41:24;1.73;;;0.75;;
5999;SDS011;3028;49.468;7.694;2023-07-29T07:43:26;1.02;;;0.63;;
5999;SDS011;3028;49.468;7.694;2023-07-29T07:45:28;0.60;;;0.60;;
5999;SDS011;3028;49.468;7.694;2023-07-29T07:47:30;2.42;;;0.70;;
5999;SDS011;3028;49.468;7.694;2023-07-29T07:49:32;1.75;;;0.60;;
5999;SDS011;3028;49.468;7.694;2023-07-29T07:51:33;0.70;;;0.60;;
5999;SDS011;3028;49.468;7.694;2023-07-29T07:53:35;3.65;;;0.80;;
5999;SDS011;3028;49.468;7.694;2023-07-29T07:55:37;0.70;;;0.70;;
5999;SDS011;3028;49.468;7.694;2023-07-29T07:57:38;1.70;;;0.85;;
5999;SDS011;3028;49.468;7.694;2023-07-29T07:59:40;0.73;;;0.70;;
5999;SDS011;3028;49.468;7.694;2023-07-29T08:01:42;1.23;;;0.70;;
5999;SDS011;3028;49.468;7.694;2023-07-29T08:03:44;1.48;;;0.70;;
5999;SDS011;3028;49.468;7.694;2023-07-29T08:05:46;1.05;;;0.80;;
5999;SDS011;3028;49.468;7.694;2023-07-29T08:07:48;0.73;;;0.73;;
5999;SDS011;3028;49.468;7.694;2023-07-29T08:09:49;0.88;;;0.65;;
5999;SDS011;3028;49.468;7.694;2023-07-29T08:11:51;0.77;;;0.77;;
5999;SDS011;3028;49.468;7.694;2023-07-29T08:13:53;0.70;;;0.70;;
5999;SDS011;3028;49.468;7.694;2023-07-29T08:15:55;1.10;;;0.60;;
5999;SDS011;3028;49.468;7.694;2023-07-29T08:17:56;1.98;;;0.98;;
5999;SDS011;3028;49.468;7.694;2023-07-29T08:19:58;2.30;;;1.00;;
5999;SDS011;3028;49.468;7.694;2023-07-29T08:22:02;1.27;;;0.77;;
5999;SDS011;3028;49.468;7.694;2023-07-29T08:24:04;1.80;;;0.73;;
5999;SDS011;3028;49.468;7.694;2023-07-29T08:26:06;1.83;;;0.98;;
5999;SDS011;3028;49.468;7.694;2023-07-29T08:28:09;2.17;;;1.00;;
5999;SDS011;3028;49.468;7.694;2023-07-29T08:30:12;1.65;;;0.70;;
5999;SDS011;3028;49.468;7.694;2023-07-29T08:32:14;1.33;;;0.90;;
5999;SDS011;3028;49.468;7.694;2023-07-29T08:34:16;0.70;;;0.70;;
5999;SDS011;3028;49.468;7.694;2023-07-29T08:36:17;1.05;;;0.88;;
5999;SDS011;3028;49.468;7.694;2023-07-29T08:38:19;2.50;;;0.85;;
5999;SDS011;3028;49.468;7.694;2023-07-29T08:40:23;1.63;;;0.80;;
5999;SDS011;3028;49.468;7.694;2023-07-29T08:42:29;1.85;;;1.08;;
5999;SDS011;3028;49.468;7.694;2023-07-29T08:44:40;3.28;;;0.85;;
5999;SDS011;3028;49.468;7.694;2023-07-29T08:46:42;1.15;;;0.80;;
5999;SDS011;3028;49.468;7.694;2023-07-29T08:48:44;2.85;;;0.70;;
5999;SDS011;3028;49.468;7.694;2023-07-29T08:50:47;1.33;;;0.95;;
5999;SDS011;3028;49.468;7.694;2023-07-29T08:52:49;2.45;;;1.10;;
5999;SDS011;3028;49.468;7.694;2023-07-29T08:54:52;1.20;;;0.82;;
5999;SDS011;3028;49.468;7.694;2023-07-29T08:56:54;2.83;;;0.95;;
5999;SDS011;3028;49.468;7.694;2023-07-29T08:58:56;1.10;;;1.00;;
5999;SDS011;3028;49.468;7.694;2023-07-29T09:00:58;2.00;;;0.90;;
5999;SDS011;3028;49.468;7.694;2023-07-29T09:02:59;1.60;;;1.13;;
5999;SDS011;3028;49.468;7.694;2023-07-29T09:05:07;1.58;;;0.70;;
5999;SDS011;3028;49.468;7.694;2023-07-29T09:07:09;1.52;;;0.95;;
5999;SDS011;3028;49.468;7.694;2023-07-29T09:09:11;1.55;;;0.80;;
5999;SDS011;3028;49.468;7.694;2023-07-29T09:11:14;0.80;;;0.80;;
5999;SDS011;3028;49.468;7.694;2023-07-29T09:13:19;1.08;;;0.98;;
5999;SDS011;3028;49.468;7.694;2023-07-29T09:15:30;2.05;;;0.80;;
5999;SDS011;3028;49.468;7.694;2023-07-29T09:17:33;2.17;;;1.00;;
5999;SDS011;3028;49.468;7.694;2023-07-29T09:19:35;0.98;;;0.90;;
5999;SDS011;3028;49.468;7.694;2023-07-29T09:21:40;2.53;;;1.00;;
5999;SDS011;3028;49.468;7.694;2023-07-29T09:23:43;2.42;;;0.98;;
5999;SDS011;3028;49.468;7.694;2023-07-29T09:25:48;1.60;;;0.98;;
5999;SDS011;3028;49.468;7.694;2023-07-29T09:27:50;1.38;;;1.10;;
5999;SDS011;3028;49.468;7.694;2023-07-29T09:29:53;2.13;;;1.00;;
5999;SDS011;3028;49.468;7.694;2023-07-29T09:31:59;0.93;;;0.85;;
5999;SDS011;3028;49.468;7.694;2023-07-29T09:34:21;1.23;;;0.90;;
5999;SDS011;3028;49.468;7.694;2023-07-29T09:36:22;1.23;;;0.93;;
5999;SDS011;3028;49.468;7.694;2023-07-29T09:38:27;2.58;;;1.00;;
5999;SDS011;3028;49.468;7.694;2023-07-29T09:40:36;1.08;;;0.95;;
5999;SDS011;3028;49.468;7.694;2023-07-29T09:42:39;4.18;;;1.05;;
5999;SDS011;3028;49.468;7.694;2023-07-29T09:44:40;2.92;;;0.98;;
5999;SDS011;3028;49.468;7.694;2023-07-29T09:46:45;1.13;;;0.80;;
5999;SDS011;3028;49.468;7.694;2023-07-29T09:48:48;2.38;;;0.90;;
5999;SDS011;3028;49.468;7.694;2023-07-29T09:50:51;4.10;;;0.90;;
5999;SDS011;3028;49.468;7.694;2023-07-29T09:52:54;1.42;;;1.10;;
5999;SDS011;3028;49.468;7.694;2023-07-29T09:54:57;1.20;;;1.10;;
5999;SDS011;3028;49.468;7.694;2023-07-29T09:56:58;1.08;;;0.90;;
5999;SDS011;3028;49.468;7.694;2023-07-29T09:59:00;1.10;;;0.95;;
5999;SDS011;3028;49.468;7.694;2023-07-29T10:01:06;1.38;;;0.85;;
5999;SDS011;3028;49.468;7.694;2023-07-29T10:03:08;1.67;;;0.88;;
5999;SDS011;3028;49.468;7.694;2023-07-29T10:05:10;1.80;;;0.88;;
5999;SDS011;3028;49.468;7.694;2023-07-29T10:07:12;0.90;;;0.90;;
5999;SDS011;3028;49.468;7.694;2023-07-29T10:09:14;1.70;;;1.10;;
5999;SDS011;3028;49.468;7.694;2023-07-29T10:11:16;6.32;;;1.23;;
5999;SDS011;3028;49.468;7.694;2023-07-29T10:13:21;1.02;;;0.88;;
5999;SDS011;3028;49.468;7.694;2023-07-29T10:15:23;6.28;;;1.05;;
5999;SDS011;3028;49.468;7.694;2023-07-29T10:17:26;1.35;;;0.85;;
5999;SDS011;3028;49.468;7.694;2023-07-29T10:19:28;1.33;;;1.00;;
5999;SDS011;3028;49.468;7.694;2023-07-29T10:21:32;0.90;;;0.90;;
5999;SDS011;3028;49.468;7.694;2023-07-29T10:23:37;0.90;;;0.90;;
5999;SDS011;3028;49.468;7.694;2023-07-29T10:25:49;0.80;;;0.70;;
5999;SDS011;3028;49.468;7.694;2023-07-29T10:28:04;1.70;;;1.10;;
5999;SDS011;3028;49.468;7.694;2023-07-29T10:30:07;1.15;;;1.05;;
5999;SDS011;3028;49.468;7.694;2023-07-29T10:32:11;0.93;;;0.90;;
5999;SDS011;3028;49.468;7.694;2023-07-29T10:34:13;1.25;;;0.80;;
5999;SDS011;3028;49.468;7.694;2023-07-29T10:36:15;1.08;;;0.95;;
5999;SDS011;3028;49.468;7.694;2023-07-29T10:38:17;1.13;;;0.80;;
5999;SDS011;3028;49.468;7.694;2023-07-29T10:40:20;5.45;;;1.00;;
5999;SDS011;3028;49.468;7.694;2023-07-29T10:42:22;2.03;;;1.23;;
5999;SDS011;3028;49.468;7.694;2023-07-29T10:46:44;1.52;;;1.42;;
5999;SDS011;3028;49.468;7.694;2023-07-29T10:50:51;0.85;;;0.80;;
5999;SDS011;3028;49.468;7.694;2023-07-29T10:53:31;1.10;;;1.00;;
5999;SDS011;3028;49.468;7.694;2023-07-29T10:55:34;4.50;;;0.82;;
5999;SDS011;3028;49.468;7.694;2023-07-29T10:57:39;1.15;;;0.65;;
5999;SDS011;3028;49.468;7.694;2023-07-29T10:59:54;1.35;;;1.20;;
5999;SDS011;3028;49.468;7.694;2023-07-29T11:01:57;1.33;;;0.90;;
5999;SDS011;3028;49.468;7.694;2023-07-29T11:06:21;1.30;;;1.00;;
5999;SDS011;3028;49.468;7.694;2023-07-29T11:08:26;0.85;;;0.70;;
5999;SDS011;3028;49.468;7.694;2023-07-29T11:10:29;0.80;;;0.80;;
5999;SDS011;3028;49.468;7.694;2023-07-29T11:12:45;1.20;;;0.70;;
5999;SDS011;3028;49.468;7.694;2023-07-29T11:14:47;0.73;;;0.73;;
5999;SDS011;3028;49.468;7.694;2023-07-29T11:16:49;0.60;;;0.60;;
5999;SDS011;3028;49.468;7.694;2023-07-29T11:18:51;0.80;;;0.80;;
5999;SDS011;3028;49.468;7.694;2023-07-29T11:20:53;2.25;;;0.68;;
5999;SDS011;3028;49.468;7.694;2023-07-29T11:22:57;2.13;;;1.10;;
5999;SDS011;3028;49.468;7.694;2023-07-29T11:24:59;0.93;;;0.88;;
5999;SDS011;3028;49.468;7.694;2023-07-29T11:27:01;1.27;;;0.77;;
5999;SDS011;3028;49.468;7.694;2023-07-29T11:29:03;1.15;;;1.02;;
5999;SDS011;3028;49.468;7.694;2023-07-29T11:31:06;0.77;;;0.60;;
5999;SDS011;3028;49.468;7.694;2023-07-29T11:33:08;1.25;;;0.93;;
5999;SDS011;3028;49.468;7.694;2023-07-29T11:35:13;1.75;;;0.70;;
5999;SDS011;3028;49.468;7.694;2023-07-29T11:37:19;1.52;;;0.88;;
5999;SDS011;3028;49.468;7.694;2023-07-29T11:39:22;0.90;;;0.75;;
5999;SDS011;3028;49.468;7.694;2023-07-29T11:41:24;1.23;;;0.85;;
5999;SDS011;3028;49.468;7.694;2023-07-29T11:43:26;2.40;;;0.88;;
5999;SDS011;3028;49.468;7.694;2023-07-29T11:45:28;0.80;;;0.80;;
5999;SDS011;3028;49.468;7.694;2023-07-29T11:47:46;1.25;;;0.70;;
5999;SDS011;3028;49.468;7.694;2023-07-29T11:49:48;0.80;;;0.80;;
5999;SDS011;3028;49.468;7.694;2023-07-29T11:51:50;1.92;;;0.70;;
5999;SDS011;3028;49.468;7.694;2023-07-29T11:53:52;1.73;;;0.82;;
5999;SDS011;3028;49.468;7.694;2023-07-29T11:55:54;0.90;;;0.80;;
5999;SDS011;3028;49.468;7.694;2023-07-29T11:57:56;6.30;;;0.80;;
5999;SDS011;3028;49.468;7.694;2023-07-29T11:59:58;1.00;;;0.90;;
5999;SDS011;3028;49.468;7.694;2023-07-29T12:02:01;0.95;;;0.88;;
5999;SDS011;3028;49.468;7.694;2023-07-29T12:04:04;1.17;;;0.80;;
5999;SDS011;3028;49.468;7.694;2023-07-29T12:06:06;0.60;;;0.60;;
5999;SDS011;3028;49.468;7.694;2023-07-29T12:08:08;1.38;;;0.80;;
5999;SDS011;3028;49.468;7.694;2023-07-29T12:10:10;0.70;;;0.70;;
5999;SDS011;3028;49.468;7.694;2023-07-29T12:12:13;2.35;;;1.45;;
5999;SDS011;3028;49.468;7.694;2023-07-29T12:14:16;0.80;;;0.80;;
5999;SDS011;3028;49.468;7.694;2023-07-29T12:16:18;0.85;;;0.80;;
5999;SDS011;3028;49.468;7.694;2023-07-29T12:18:28;2.92;;;0.85;;
5999;SDS011;3028;49.468;7.694;2023-07-29T12:20:31;1.10;;;0.90;;
5999;SDS011;3028;49.468;7.694;2023-07-29T12:22:33;0.82;;;0.82;;
5999;SDS011;3028;49.468;7.694;2023-07-29T12:24:36;1.00;;;0.90;;
5999;SDS011;3028;49.468;7.694;2023-07-29T12:26:38;0.82;;;0.70;;
5999;SDS011;3028;49.468;7.694;2023-07-29T12:28:44;2.40;;;0.90;;
5999;SDS011;3028;49.468;7.694;2023-07-29T12:30:53;0.80;;;0.60;;
5999;SDS011;3028;49.468;7.694;2023-07-29T12:32:58;1.00;;;0.70;;
5999;SDS011;3028;49.468;7.694;2023-07-29T12:35:00;0.80;;;0.80;;
5999;SDS011;3028;49.468;7.694;2023-07-29T12:37:02;1.05;;;0.95;;
5999;SDS011;3028;49.468;7.694;2023-07-29T12:39:04;1.00;;;0.80;;
5999;SDS011;3028;49.468;7.694;2023-07-29T12:41:06;1.20;;;0.80;;
5999;SDS011;3028;49.468;7.694;2023-07-29T12:43:08;0.70;;;0.70;;
5999;SDS011;3028;49.468;7.694;2023-07-29T12:45:10;1.10;;;0.93;;
5999;SDS011;3028;49.468;7.694;2023-07-29T12:47:12;1.08;;;0.95;;
5999;SDS011;3028;49.468;7.694;2023-07-29T12:49:13;0.90;;;0.70;;
5999;SDS011;3028;49.468;7.694;2023-07-29T12:51:15;0.85;;;0.70;;
5999;SDS011;3028;49.468;7.694;2023-07-29T12:53:17;1.27;;;1.17;;
5999;SDS011;3028;49.468;7.694;2023-07-29T12:55:19;0.80;;;0.80;;
5999;SDS011;3028;49.468;7.694;2023-07-29T12:57:24;1.08;;;0.95;;
5999;SDS011;3028;49.468;7.694;2023-07-29T12:59:26;2.22;;;0.82;;